< < Back
Terminal Aerodrome Forecast


Current Version              Previous Versions:   1  2  3  4  5  6  7  8  9  

Terminal Aerodrome Forecast

391
FTAK31 PAJN 232338
TAFAGS
TAF
PAGS 232338Z 2400/2424 18005KT 4SM -RA BR BKN008 BKN012 OVC025
      TEMPO 2400/2404 12010KT P6SM -RA SCT008 BKN012 OVC030
     FM240400 13012G18KT 4SM SHRA SCT008 BKN015 OVC025
     FM241200 20005KT 6SM -SHRA BR BKN010 OVC015
     FM242100 18006KT 6SM -SHRA BR BKN015 OVC025
      AMD LTD TO CLD VIS AND WIND=



Latest METAR

499
SAUS70 KWBC 240100 RRJ
MTRAGS
METAR KAGS 240053Z 09011KT 10SM TS SCT060 26/21 A2997 RMK AO2 RAB06E29
TSB28 SLP148 P0002 T02610211


USA.gov is the U.S. government's official web portal to all federal, state and local government web resources and services.